Time;durP1;ratioP1;P1;durP2;ratioP2;P2;SDS_P1;SDS_P2;PMS_P1;PMS_P2;Temp;Humidity;BMP_temperature;BMP_pressure;BME280_temperature;BME280_humidity;BME280_pressure;Samples;Min_cycle;Max_cycle;Signal;HPM_P1;HPM_P2
2023/06/25 00:00:23;;;;;;;3.97;3.53;;;25.70;59.40;;;;;;5045293;28;20030;-56
2023/06/25 00:02:48;;;;;;;3.95;3.40;;;25.60;59.40;;;;;;5045459;28;20036;-55
2023/06/25 00:05:16;;;;;;;4.53;3.65;;;25.70;59.50;;;;;;5046576;28;20053;-55
2023/06/25 00:07:42;;;;;;;4.00;3.55;;;25.60;59.60;;;;;;5045351;28;20154;-55
2023/06/25 00:10:08;;;;;;;3.90;3.60;;;25.60;59.80;;;;;;5045248;28;20129;-55
2023/06/25 00:12:33;;;;;;;3.90;3.50;;;25.50;59.80;;;;;;5046566;28;20055;-55
2023/06/25 00:14:59;;;;;;;4.90;3.53;;;25.50;59.80;;;;;;5044842;28;20088;-55
2023/06/25 00:17:27;;;;;;;5.28;3.42;;;25.50;60.30;;;;;;5045089;28;20033;-55
2023/06/25 00:19:54;;;;;;;5.00;3.42;;;25.50;59.90;;;;;;5045094;28;20041;-55
2023/06/25 00:22:19;;;;;;;6.30;3.83;;;25.40;59.80;;;;;;5046473;28;20093;-55
2023/06/25 00:24:45;;;;;;;4.47;4.07;;;25.40;59.90;;;;;;5045041;28;20090;-55
2023/06/25 00:27:10;;;;;;;3.42;3.13;;;25.40;60.00;;;;;;5046303;28;20045;-55
2023/06/25 00:29:36;;;;;;;4.50;3.80;;;25.30;60.00;;;;;;5044700;28;20087;-55
2023/06/25 00:32:02;;;;;;;4.15;3.50;;;25.30;60.10;;;;;;5028262;28;20087;-55
2023/06/25 00:34:28;;;;;;;4.53;3.63;;;25.30;60.20;;;;;;5046092;28;20063;-55
2023/06/25 00:36:53;;;;;;;4.00;3.60;;;25.30;60.30;;;;;;5045805;28;20116;-55
2023/06/25 00:39:19;;;;;;;4.93;3.85;;;25.20;60.30;;;;;;5044539;28;20033;-55
2023/06/25 00:41:45;;;;;;;4.50;3.53;;;25.20;60.40;;;;;;5045807;28;20029;-55
2023/06/25 00:44:10;;;;;;;3.95;3.65;;;25.10;60.40;;;;;;5044507;28;20116;-55
2023/06/25 00:46:36;;;;;;;3.67;3.28;;;25.10;60.30;;;;;;5045625;28;20025;-56
2023/06/25 00:49:05;;;;;;;6.20;3.58;;;25.10;60.30;;;;;;5044433;28;20051;-56
2023/06/25 00:51:32;;;;;;;5.82;3.85;;;25.10;60.40;;;;;;5044464;28;20033;-55
2023/06/25 00:53:57;;;;;;;4.35;3.25;;;25.00;60.50;;;;;;5045475;28;20025;-55
2023/06/25 00:56:29;;;;;;;4.25;3.83;;;25.00;60.60;;;;;;5044446;28;20093;-56
2023/06/25 00:59:00;;;;;;;4.13;3.67;;;25.00;60.70;;;;;;5045747;28;20034;-55
2023/06/25 01:01:31;;;;;;;4.40;3.40;;;24.90;60.70;;;;;;5044328;28;20060;-55
2023/06/25 01:04:00;;;;;;;5.28;3.60;;;24.80;60.80;;;;;;5028286;28;20026;-56
2023/06/25 01:06:29;;;;;;;3.70;3.28;;;24.80;60.80;;;;;;5045518;28;20029;-55
2023/06/25 01:08:55;;;;;;;3.60;3.30;;;24.80;60.90;;;;;;5043866;28;20045;-55
2023/06/25 01:11:21;;;;;;;5.65;3.65;;;24.80;60.90;;;;;;5043942;28;20121;-55
2023/06/25 01:13:46;;;;;;;3.65;3.35;;;24.80;60.80;;;;;;5045378;28;20030;-56
2023/06/25 01:16:12;;;;;;;3.83;3.53;;;24.80;60.90;;;;;;5043754;28;20097;-55
2023/06/25 01:18:39;;;;;;;8.88;3.53;;;24.80;61.10;;;;;;5043992;28;20104;-55
2023/06/25 01:21:07;;;;;;;3.60;3.30;;;24.70;61.10;;;;;;5043976;28;20029;-55
2023/06/25 01:23:37;;;;;;;5.63;3.72;;;24.70;61.10;;;;;;5043878;28;20021;-55
2023/06/25 01:26:02;;;;;;;3.42;3.13;;;24.70;61.30;;;;;;5043899;28;20037;-55
2023/06/25 01:28:28;;;;;;;4.18;3.70;;;24.60;61.40;;;;;;5045679;28;20097;-56
2023/06/25 01:30:54;;;;;;;4.25;3.85;;;24.60;61.50;;;;;;5044307;28;20030;-55
2023/06/25 01:33:20;;;;;;;3.75;3.40;;;24.60;61.60;;;;;;5045036;28;20093;-55
2023/06/25 01:35:46;;;;;;;3.85;3.47;;;24.50;61.60;;;;;;5043605;28;20035;-55
2023/06/25 01:38:12;;;;;;;3.80;3.50;;;24.50;61.50;;;;;;5043450;28;20471;-55
2023/06/25 01:40:37;;;;;;;5.38;3.75;;;24.50;61.70;;;;;;5044962;28;20040;-55
2023/06/25 01:43:03;;;;;;;3.92;3.40;;;24.50;61.70;;;;;;5043324;28;20101;-55
2023/06/25 01:45:28;;;;;;;4.10;3.75;;;24.50;61.80;;;;;;5044870;28;20113;-55
2023/06/25 01:47:54;;;;;;;4.32;3.45;;;24.40;61.80;;;;;;5043327;28;20041;-56
2023/06/25 01:50:20;;;;;;;3.60;3.30;;;24.40;61.80;;;;;;5044880;28;20029;-55
2023/06/25 01:52:46;;;;;;;4.13;3.50;;;24.40;61.90;;;;;;5043252;28;20093;-55
2023/06/25 01:55:11;;;;;;;5.90;3.55;;;24.40;62.10;;;;;;5043307;28;20044;-55
2023/06/25 01:57:37;;;;;;;5.18;3.38;;;24.30;62.10;;;;;;5043300;28;20025;-56
2023/06/25 02:00:04;;;;;;;3.53;3.22;;;24.30;62.20;;;;;;5043170;28;20029;-55
2023/06/25 02:02:29;;;;;;;3.58;3.30;;;24.20;62.30;;;;;;5044599;28;20029;-55
2023/06/25 02:04:55;;;;;;;4.07;3.13;;;24.20;62.80;;;;;;5043057;28;20025;-56
2023/06/25 02:07:20;;;;;;;3.85;3.45;;;24.10;62.50;;;;;;5044680;28;20025;-55
2023/06/25 02:09:46;;;;;;;3.90;3.50;;;24.20;62.40;;;;;;5027283;28;20037;-55
2023/06/25 02:12:12;;;;;;;5.13;3.58;;;24.10;62.50;;;;;;5045106;28;20124;-55
2023/06/25 02:14:37;;;;;;;4.85;3.08;;;24.10;62.50;;;;;;5044883;28;20056;-54
2023/06/25 02:17:03;;;;;;;4.43;3.63;;;24.10;62.60;;;;;;5043370;28;20068;-55
2023/06/25 02:19:28;;;;;;;3.63;3.33;;;24.10;62.70;;;;;;5043782;28;20034;-55
2023/06/25 02:21:54;;;;;;;3.50;3.20;;;24.10;62.70;;;;;;5048277;28;20029;-55
2023/06/25 02:24:19;;;;;;;3.45;3.15;;;24.00;62.80;;;;;;5047242;28;20072;-55
2023/06/25 02:26:45;;;;;;;3.55;3.25;;;24.00;62.80;;;;;;5047198;28;20044;-55
2023/06/25 02:29:10;;;;;;;4.00;3.60;;;24.00;62.80;;;;;;5048519;28;20032;-56
2023/06/25 02:31:36;;;;;;;3.45;3.15;;;24.00;62.90;;;;;;5047735;28;20038;-55
2023/06/25 02:34:01;;;;;;;4.78;3.35;;;24.00;63.10;;;;;;5047057;28;20053;-55
2023/06/25 02:36:27;;;;;;;5.03;3.13;;;23.90;63.10;;;;;;5030480;28;20033;-55
2023/06/25 02:38:53;;;;;;;4.47;3.30;;;23.90;63.10;;;;;;5046299;28;20036;-56
2023/06/25 02:41:18;;;;;;;3.85;3.55;;;23.90;63.10;;;;;;5029800;28;20125;-55
2023/06/25 02:43:44;;;;;;;4.53;3.55;;;23.80;63.10;;;;;;5047984;28;20400;-55
2023/06/25 02:46:09;;;;;;;4.15;3.80;;;23.80;63.30;;;;;;5046276;28;20033;-55
2023/06/25 02:48:42;;;;;;;4.38;3.15;;;23.80;63.30;;;;;;5046314;28;20339;-55
2023/06/25 02:51:08;;;;;;;4.05;3.47;;;23.80;63.40;;;;;;5046618;28;20082;-55
2023/06/25 02:53:33;;;;;;;4.28;3.67;;;23.70;63.40;;;;;;5030027;28;20116;-55
2023/06/25 02:55:59;;;;;;;4.03;3.47;;;23.70;64.10;;;;;;5046414;28;20049;-55
2023/06/25 02:58:24;;;;;;;4.38;3.88;;;23.70;63.60;;;;;;5047477;28;20081;-55
2023/06/25 03:00:50;;;;;;;3.83;3.42;;;23.70;63.70;;;;;;5046170;28;20030;-55
2023/06/25 03:03:15;;;;;;;3.75;3.45;;;23.60;63.80;;;;;;5046737;28;20564;-55
2023/06/25 03:05:42;;;;;;;3.30;3.00;;;23.60;63.90;;;;;;5047995;28;20523;-55
2023/06/25 03:08:07;;;;;;;3.72;3.40;;;23.50;63.90;;;;;;5029965;28;20029;-56
2023/06/25 03:10:33;;;;;;;6.18;3.47;;;23.50;64.00;;;;;;5047618;28;20041;-55
2023/06/25 03:12:59;;;;;;;5.75;3.70;;;23.50;64.00;;;;;;5047582;28;20032;-55
2023/06/25 03:15:24;;;;;;;3.97;3.58;;;23.50;64.00;;;;;;5046152;28;20053;-55
2023/06/25 03:17:50;;;;;;;3.70;3.38;;;23.40;64.20;;;;;;5046035;28;20490;-55
2023/06/25 03:20:15;;;;;;;3.75;3.40;;;23.40;64.20;;;;;;5047649;28;20034;-55
2023/06/25 03:22:41;;;;;;;4.28;3.70;;;23.40;64.40;;;;;;5047623;28;20048;-55
2023/06/25 03:25:07;;;;;;;4.00;3.38;;;23.40;64.40;;;;;;5047326;28;20048;-55
2023/06/25 03:27:35;;;;;;;3.83;3.22;;;23.40;64.40;;;;;;5047133;28;20052;-55
2023/06/25 03:30:01;;;;;;;3.78;3.28;;;23.40;64.50;;;;;;5045790;28;20039;-55
2023/06/25 03:32:27;;;;;;;5.78;3.78;;;23.40;64.50;;;;;;5045693;28;20037;-55
2023/06/25 03:34:55;;;;;;;4.15;3.72;;;23.30;64.90;;;;;;5045767;28;20075;-55
2023/06/25 03:37:21;;;;;;;3.80;3.38;;;23.30;64.70;;;;;;5045750;28;20041;-55
2023/06/25 03:39:46;;;;;;;3.70;3.40;;;23.20;64.70;;;;;;5045651;28;20033;-55
2023/06/25 03:42:12;;;;;;;3.97;3.50;;;23.20;64.70;;;;;;5047377;28;20029;-55
2023/06/25 03:44:45;;;;;;;6.00;3.78;;;23.20;64.80;;;;;;5045466;28;20040;-55
2023/06/25 03:47:11;;;;;;;3.95;3.63;;;23.20;64.80;;;;;;5046361;28;20048;-55
2023/06/25 03:49:36;;;;;;;4.38;3.72;;;23.20;64.90;;;;;;5046619;28;20029;-55
2023/06/25 03:52:02;;;;;;;3.90;3.55;;;23.10;64.90;;;;;;5048029;28;20029;-56
2023/06/25 03:54:27;;;;;;;3.70;3.40;;;23.10;65.00;;;;;;5047175;28;20030;-55
2023/06/25 03:56:53;;;;;;;3.20;2.90;;;23.10;65.00;;;;;;5030227;28;20033;-55
2023/06/25 03:59:18;;;;;;;3.95;3.38;;;23.10;65.00;;;;;;5046602;28;20075;-55
2023/06/25 04:01:44;;;;;;;3.70;3.13;;;23.00;65.20;;;;;;5045470;28;20026;-55
2023/06/25 04:04:09;;;;;;;4.30;3.80;;;23.00;65.10;;;;;;5045454;28;20085;-55
2023/06/25 04:06:35;;;;;;;4.35;3.38;;;23.00;65.20;;;;;;5045431;28;20029;-55
2023/06/25 04:09:00;;;;;;;7.18;3.78;;;23.00;65.20;;;;;;5045542;28;20053;-55
2023/06/25 04:11:26;;;;;;;4.10;3.42;;;22.90;65.30;;;;;;5045104;28;20030;-55
2023/06/25 04:13:51;;;;;;;3.30;3.00;;;22.90;65.30;;;;;;5044946;28;20029;-55
2023/06/25 04:16:17;;;;;;;3.63;3.28;;;22.90;65.40;;;;;;5045160;28;20106;-54
2023/06/25 04:18:42;;;;;;;3.50;3.20;;;22.90;65.40;;;;;;5046124;28;20017;-55
2023/06/25 04:21:08;;;;;;;3.63;3.30;;;22.90;65.30;;;;;;5045519;28;20026;-55
2023/06/25 04:23:34;;;;;;;4.88;3.40;;;22.80;65.40;;;;;;5045228;28;20178;-53
2023/06/25 04:25:59;;;;;;;4.63;3.40;;;22.80;65.50;;;;;;5044669;28;20033;-55
2023/06/25 04:28:25;;;;;;;4.78;3.30;;;22.80;65.70;;;;;;5045218;28;20152;-55
2023/06/25 04:30:51;;;;;;;4.57;3.53;;;22.80;65.70;;;;;;5044972;28;20497;-55
2023/06/25 04:33:16;;;;;;;4.70;3.33;;;22.70;65.70;;;;;;5046107;28;20026;-55
2023/06/25 04:35:42;;;;;;;3.78;3.40;;;22.70;65.80;;;;;;5044898;28;20037;-55
2023/06/25 04:38:07;;;;;;;3.72;3.42;;;22.70;65.80;;;;;;5044581;28;20025;-55
2023/06/25 04:40:33;;;;;;;3.55;3.20;;;22.70;65.90;;;;;;5046018;28;20067;-55
2023/06/25 04:42:59;;;;;;;4.15;3.75;;;22.70;66.00;;;;;;5045268;28;20025;-55
2023/06/25 04:45:26;;;;;;;3.45;3.15;;;22.70;65.90;;;;;;5044398;28;20048;-55
2023/06/25 04:47:51;;;;;;;4.65;3.30;;;22.60;65.80;;;;;;5044980;28;20031;-55
2023/06/25 04:50:17;;;;;;;3.67;3.38;;;22.60;65.80;;;;;;5045829;28;20061;-55
2023/06/25 04:52:42;;;;;;;4.50;3.17;;;22.60;65.80;;;;;;5044405;28;20026;-55
2023/06/25 04:55:08;;;;;;;3.47;3.15;;;22.60;65.90;;;;;;5045765;28;20033;-55
2023/06/25 04:57:33;;;;;;;3.97;3.30;;;22.60;65.90;;;;;;5027737;28;20362;-55
2023/06/25 04:59:59;;;;;;;3.90;3.50;;;22.60;65.90;;;;;;5045494;28;20041;-55
2023/06/25 05:02:24;;;;;;;5.38;3.63;;;22.60;66.00;;;;;;5045617;28;20029;-55
2023/06/25 05:04:50;;;;;;;4.22;3.05;;;22.60;66.00;;;;;;5045534;28;20034;-55
2023/06/25 05:07:16;;;;;;;3.45;3.15;;;22.50;65.90;;;;;;5027848;28;20120;-55
2023/06/25 05:09:42;;;;;;;5.20;3.80;;;22.50;65.90;;;;;;5044193;28;20034;-55
2023/06/25 05:12:08;;;;;;;3.70;3.40;;;22.50;65.90;;;;;;5044120;28;20037;-55
2023/06/25 05:14:34;;;;;;;3.67;3.33;;;22.50;66.00;;;;;;5044202;28;20057;-53
2023/06/25 05:16:59;;;;;;;3.40;3.10;;;22.50;66.00;;;;;;5044059;28;20044;-55
2023/06/25 05:19:25;;;;;;;5.53;3.65;;;22.50;66.00;;;;;;5044085;28;20030;-55
2023/06/25 05:21:50;;;;;;;5.57;3.53;;;22.50;66.00;;;;;;5045384;28;20025;-55
2023/06/25 05:24:16;;;;;;;5.35;3.40;;;22.50;66.00;;;;;;5045125;28;20034;-55
2023/06/25 05:26:41;;;;;;;4.97;3.50;;;22.40;66.10;;;;;;5043914;28;20052;-55
2023/06/25 05:29:07;;;;;;;4.40;3.53;;;22.40;66.10;;;;;;5045148;28;20033;-55
2023/06/25 05:31:32;;;;;;;4.65;3.63;;;22.40;66.10;;;;;;5043829;28;20139;-54
2023/06/25 05:33:58;;;;;;;4.28;3.22;;;22.40;66.20;;;;;;5045285;28;20021;-55
2023/06/25 05:36:24;;;;;;;3.63;3.33;;;22.40;66.20;;;;;;5043619;28;20100;-55
2023/06/25 05:38:49;;;;;;;3.80;3.25;;;22.40;66.20;;;;;;5045278;28;20428;-55
2023/06/25 05:41:15;;;;;;;5.35;3.42;;;22.40;66.20;;;;;;5045370;28;20459;-55
2023/06/25 05:43:40;;;;;;;4.93;3.10;;;22.40;66.30;;;;;;5045468;28;20057;-55
2023/06/25 05:46:11;;;;;;;3.75;3.40;;;22.30;66.20;;;;;;5044172;28;20030;-55
2023/06/25 05:48:37;;;;;;;4.63;3.55;;;22.40;66.30;;;;;;5043786;28;20450;-55
2023/06/25 05:51:03;;;;;;;3.90;3.55;;;22.30;66.30;;;;;;5044974;28;20048;-55
2023/06/25 05:53:37;;;;;;;4.30;2.97;;;22.30;66.30;;;;;;5045079;28;20029;-55
2023/06/25 05:56:03;;;;;;;3.40;3.10;;;22.30;66.40;;;;;;5044673;28;20072;-54
2023/06/25 05:58:28;;;;;;;3.67;3.38;;;22.30;66.40;;;;;;5042621;28;20033;-55
2023/06/25 06:00:54;;;;;;;3.40;3.10;;;22.30;66.40;;;;;;5043439;28;20103;-55
2023/06/25 06:03:19;;;;;;;3.33;3.03;;;22.30;66.40;;;;;;5043446;28;20025;-55
2023/06/25 06:05:45;;;;;;;3.88;3.50;;;22.30;66.40;;;;;;5042839;28;20041;-55
2023/06/25 06:08:10;;;;;;;3.20;2.88;;;22.30;66.50;;;;;;5045001;28;20025;-55
2023/06/25 06:10:36;;;;;;;5.95;3.63;;;22.30;66.50;;;;;;5043404;28;20109;-55
2023/06/25 06:13:01;;;;;;;4.07;3.55;;;22.30;66.50;;;;;;5044913;28;20041;-55
2023/06/25 06:15:27;;;;;;;5.63;3.30;;;22.30;66.60;;;;;;5045102;28;20037;-55
2023/06/25 06:17:52;;;;;;;3.80;3.38;;;22.30;66.60;;;;;;5043203;28;20081;-55
2023/06/25 06:20:18;;;;;;;3.40;3.10;;;22.30;66.60;;;;;;5027066;28;20034;-55
2023/06/25 06:22:43;;;;;;;5.65;3.42;;;22.30;66.60;;;;;;5042830;28;20389;-55
2023/06/25 06:25:09;;;;;;;5.32;3.38;;;22.30;66.70;;;;;;5043059;28;20030;-55
2023/06/25 06:27:34;;;;;;;3.97;3.58;;;22.30;66.80;;;;;;5045162;28;20025;-55
2023/06/25 06:30:00;;;;;;;3.42;3.10;;;22.20;66.70;;;;;;5044516;28;20431;-55
2023/06/25 06:32:25;;;;;;;3.40;3.10;;;22.20;66.70;;;;;;5043334;28;20111;-55
2023/06/25 06:34:51;;;;;;;3.50;3.20;;;22.20;66.70;;;;;;5044792;28;20072;-55
2023/06/25 06:37:17;;;;;;;3.67;3.38;;;22.20;66.80;;;;;;5041376;28;20516;-55
2023/06/25 06:39:42;;;;;;;4.07;3.67;;;22.20;66.80;;;;;;5050047;28;20032;-55
2023/06/25 06:42:08;;;;;;;4.43;3.13;;;22.20;66.90;;;;;;5044501;28;20021;-55
2023/06/25 06:44:33;;;;;;;4.05;3.50;;;22.20;67.00;;;;;;5043971;28;20112;-56
2023/06/25 06:46:59;;;;;;;3.95;3.55;;;22.20;67.00;;;;;;5042960;28;20017;-55
2023/06/25 06:49:24;;;;;;;3.47;3.17;;;22.20;67.00;;;;;;5043030;28;20052;-55
2023/06/25 06:51:50;;;;;;;5.55;2.95;;;22.20;67.00;;;;;;5045898;28;20085;-55
2023/06/25 06:54:15;;;;;;;3.83;3.40;;;22.20;67.00;;;;;;5043958;28;20049;-55
2023/06/25 06:56:41;;;;;;;4.15;3.25;;;22.20;67.10;;;;;;5050961;28;20030;-55
2023/06/25 06:59:06;;;;;;;3.75;3.45;;;22.20;67.00;;;;;;5044032;28;20032;-55
2023/06/25 07:01:33;;;;;;;3.20;2.90;;;22.30;67.10;;;;;;5043749;28;20022;-55
2023/06/25 07:03:58;;;;;;;3.95;3.55;;;22.20;67.10;;;;;;5044165;28;20021;-55
2023/06/25 07:06:24;;;;;;;3.83;3.40;;;22.20;67.20;;;;;;5046204;28;20048;-55
2023/06/25 07:08:49;;;;;;;3.97;3.60;;;22.20;67.20;;;;;;5046655;28;20103;-55
2023/06/25 07:11:16;;;;;;;5.18;3.80;;;22.20;67.30;;;;;;5047878;28;20048;-55
2023/06/25 07:13:43;;;;;;;8.13;3.83;;;22.20;67.40;;;;;;5046322;28;20066;-55
2023/06/25 07:16:09;;;;;;;3.63;3.33;;;22.20;67.40;;;;;;5062687;28;20033;-56
2023/06/25 07:18:34;;;;;;;4.90;3.67;;;22.20;67.40;;;;;;5066198;28;20037;-55
2023/06/25 07:21:00;;;;;;;3.40;3.08;;;22.20;67.70;;;;;;5039123;28;20212;-55
2023/06/25 07:23:26;;;;;;;3.70;3.40;;;22.20;67.70;;;;;;5027807;28;20041;-55
2023/06/25 07:25:51;;;;;;;5.85;3.28;;;22.20;67.70;;;;;;5024871;28;20097;-55
2023/06/25 07:28:17;;;;;;;3.70;3.40;;;22.20;67.60;;;;;;5041510;28;20030;-55
2023/06/25 07:30:42;;;;;;;3.30;3.00;;;22.20;67.50;;;;;;5026034;28;20038;-55
2023/06/25 07:33:08;;;;;;;4.07;3.55;;;22.20;67.50;;;;;;5041242;28;20034;-55
2023/06/25 07:35:33;;;;;;;3.90;3.60;;;22.20;67.50;;;;;;5026190;28;20348;-55
2023/06/25 07:37:59;;;;;;;3.95;3.50;;;22.20;67.60;;;;;;5041252;28;20359;-55
2023/06/25 07:40:24;;;;;;;3.80;3.25;;;22.20;67.80;;;;;;5042271;28;20030;-55
2023/06/25 07:42:50;;;;;;;5.28;3.25;;;22.20;67.80;;;;;;5042779;28;20037;-55
2023/06/25 07:45:15;;;;;;;4.07;3.67;;;22.20;68.00;;;;;;5042445;28;20030;-55
2023/06/25 07:47:41;;;;;;;3.88;3.47;;;22.20;68.10;;;;;;5042503;28;20046;-55
2023/06/25 07:50:07;;;;;;;4.35;3.80;;;22.20;68.40;;;;;;5042551;28;20033;-55
2023/06/25 07:52:32;;;;;;;4.93;3.80;;;22.20;68.90;;;;;;5042416;28;20060;-55
2023/06/25 07:54:58;;;;;;;4.72;4.22;;;22.20;69.10;;;;;;5041991;28;20068;-55
2023/06/25 07:57:24;;;;;;;4.22;3.88;;;22.20;70.00;;;;;;5027085;28;20108;-55
2023/06/25 07:59:49;;;;;;;4.15;3.75;;;22.20;69.90;;;;;;5026949;28;20081;-55
2023/06/25 08:02:15;;;;;;;5.10;3.92;;;22.30;69.80;;;;;;5042118;28;20018;-55
2023/06/25 08:04:40;;;;;;;5.30;4.45;;;22.30;70.00;;;;;;5026776;28;20038;-55
2023/06/25 08:07:06;;;;;;;4.70;4.13;;;22.30;70.50;;;;;;5048304;28;20064;-55
2023/06/25 08:09:32;;;;;;;4.82;4.13;;;22.30;70.30;;;;;;5065129;28;20026;-55
2023/06/25 08:11:57;;;;;;;6.78;4.40;;;22.30;70.40;;;;;;5064748;28;20067;-55
2023/06/25 08:14:23;;;;;;;5.68;3.75;;;22.30;70.50;;;;;;5064856;28;20477;-55
2023/06/25 08:16:48;;;;;;;7.57;4.05;;;22.30;70.50;;;;;;5053356;28;20119;-55
2023/06/25 08:19:14;;;;;;;4.88;4.35;;;22.30;70.60;;;;;;5056803;28;20056;-55
2023/06/25 08:21:39;;;;;;;4.15;3.75;;;22.30;70.50;;;;;;5061435;28;20032;-55
2023/06/25 08:24:05;;;;;;;6.85;4.22;;;22.30;70.40;;;;;;5060192;28;20127;-55
2023/06/25 08:26:31;;;;;;;9.02;3.90;;;22.30;70.40;;;;;;5063569;28;20072;-55
2023/06/25 08:28:56;;;;;;;8.95;4.35;;;22.30;70.30;;;;;;5065979;28;20024;-55
2023/06/25 08:31:22;;;;;;;15.18;4.82;;;22.30;70.40;;;;;;5064504;28;20025;-55
2023/06/25 08:33:47;;;;;;;9.73;4.45;;;22.40;70.70;;;;;;5059858;28;20033;-55
2023/06/25 08:36:13;;;;;;;12.20;4.90;;;22.40;70.80;;;;;;5065918;28;20045;-55
2023/06/25 08:38:38;;;;;;;13.57;5.20;;;22.40;70.60;;;;;;5063481;28;20029;-55
2023/06/25 08:41:04;;;;;;;21.98;6.22;;;22.50;70.90;;;;;;5012891;28;20022;-55
2023/06/25 08:43:29;;;;;;;13.50;5.15;;;22.40;70.90;;;;;;5055302;28;20108;-55
2023/06/25 08:45:55;;;;;;;27.73;5.93;;;22.50;70.80;;;;;;5047664;28;20168;-56
2023/06/25 08:48:22;;;;;;;20.88;5.75;;;22.50;71.10;;;;;;5049437;28;20054;-55
2023/06/25 08:50:51;;;;;;;31.63;6.55;;;22.50;71.00;;;;;;5047123;28;20037;-55
2023/06/25 08:53:16;;;;;;;27.20;6.53;;;22.60;71.20;;;;;;5048346;28;20029;-55
2023/06/25 08:55:42;;;;;;;58.55;8.43;;;22.60;71.00;;;;;;5051394;28;20048;-55
2023/06/25 08:58:07;;;;;;;61.47;8.70;;;22.60;70.90;;;;;;5063947;28;20025;-55
2023/06/25 09:00:33;;;;;;;35.70;8.13;;;22.60;71.20;;;;;;5062448;28;20029;-55
2023/06/25 09:02:58;;;;;;;42.58;8.70;;;22.70;71.50;;;;;;5056798;28;20028;-55
2023/06/25 09:05:25;;;;;;;64.55;10.23;;;22.60;71.20;;;;;;5055510;28;20042;-55
2023/06/25 09:07:51;;;;;;;44.38;9.23;;;22.70;72.00;;;;;;5045627;28;20036;-55
2023/06/25 09:10:16;;;;;;;65.18;11.20;;;22.70;72.30;;;;;;5061032;28;20033;-55
2023/06/25 09:12:47;;;;;;;53.88;10.25;;;22.70;72.20;;;;;;5057683;28;20044;-55
2023/06/25 09:15:17;;;;;;;52.15;9.63;;;22.70;72.20;;;;;;5039944;28;20041;-55
2023/06/25 09:17:43;;;;;;;74.68;13.35;;;22.70;72.10;;;;;;5044249;28;20030;-55
2023/06/25 09:20:09;;;;;;;87.72;13.52;;;22.70;72.50;;;;;;5042975;28;20037;-55
2023/06/25 09:22:34;;;;;;;96.05;13.60;;;22.80;72.60;;;;;;5054951;28;20085;-55
2023/06/25 09:25:00;;;;;;;87.88;12.57;;;22.90;72.50;;;;;;5045718;28;20056;-55
2023/06/25 09:27:26;;;;;;;123.05;17.42;;;22.90;72.30;;;;;;5061281;28;20021;-55
2023/06/25 09:29:56;;;;;;;106.55;16.33;;;22.90;72.50;;;;;;5064191;28;20075;-55
2023/06/25 09:32:22;;;;;;;107.80;15.73;;;23.00;72.60;;;;;;5049552;28;20029;-54
2023/06/25 09:34:47;;;;;;;117.65;15.80;;;23.10;72.50;;;;;;5047223;28;20030;-55
2023/06/25 09:37:13;;;;;;;106.43;14.20;;;23.10;72.50;;;;;;5027189;28;20029;-55
2023/06/25 09:39:39;;;;;;;109.32;15.38;;;23.20;72.40;;;;;;5043245;28;20026;-55
2023/06/25 09:42:05;;;;;;;106.93;15.07;;;23.20;72.40;;;;;;5034618;28;20520;-55
2023/06/25 09:44:30;;;;;;;133.57;15.27;;;23.30;72.10;;;;;;5027760;28;20032;-54
2023/06/25 09:46:59;;;;;;;124.22;15.73;;;23.30;72.30;;;;;;5042796;28;20021;-55
2023/06/25 09:49:25;;;;;;;147.50;18.10;;;23.30;72.30;;;;;;5042653;28;20041;-55
2023/06/25 09:51:59;;;;;;;94.90;14.40;;;23.40;72.50;;;;;;5042787;28;20047;-53
2023/06/25 09:54:25;;;;;;;101.13;15.07;;;23.40;72.20;;;;;;5039685;28;20087;-55
2023/06/25 09:56:51;;;;;;;118.40;16.40;;;23.50;72.00;;;;;;5040933;28;20347;-54
2023/06/25 09:59:16;;;;;;;127.88;18.42;;;23.40;71.70;;;;;;5023746;28;20033;-55
2023/06/25 10:01:42;;;;;;;146.52;18.13;;;23.50;72.10;;;;;;5043622;28;20022;-55
2023/06/25 10:04:08;;;;;;;192.23;23.33;;;23.50;71.80;;;;;;5045080;28;20017;-55
2023/06/25 10:06:34;;;;;;;109.25;15.98;;;23.60;71.80;;;;;;5041727;28;20049;-55
2023/06/25 10:09:01;;;;;;;131.82;16.13;;;23.60;71.70;;;;;;5044488;28;20032;-55
2023/06/25 10:11:27;;;;;;;169.70;22.38;;;23.60;71.40;;;;;;5030651;28;20036;-55
2023/06/25 10:13:52;;;;;;;154.63;19.20;;;23.60;71.70;;;;;;5042756;28;20025;-55
2023/06/25 10:16:21;;;;;;;98.80;17.10;;;23.60;71.70;;;;;;5026905;28;20604;-55
2023/06/25 10:18:47;;;;;;;170.88;18.67;;;23.70;71.70;;;;;;5043083;28;20119;-55
2023/06/25 10:21:20;;;;;;;125.07;16.75;;;23.70;71.40;;;;;;5037442;28;20045;-55
2023/06/25 10:23:59;;;;;;;143.60;18.58;;;23.80;71.30;;;;;;5023574;28;20121;-55
2023/06/25 10:26:29;;;;;;;126.03;16.30;;;23.80;71.20;;;;;;5047357;28;20041;-55
2023/06/25 10:28:55;;;;;;;99.05;14.52;;;23.80;71.60;;;;;;5027067;28;20033;-55
2023/06/25 10:31:20;;;;;;;157.30;20.98;;;23.80;71.10;;;;;;5058567;28;20395;-55
2023/06/25 10:33:46;;;;;;;149.73;21.52;;;23.90;71.20;;;;;;5040708;28;21383;-55
2023/06/25 10:36:12;;;;;;;119.25;16.15;;;24.00;70.90;;;;;;5025290;28;20125;-55
2023/06/25 10:38:38;;;;;;;116.40;15.30;;;24.10;70.50;;;;;;5039930;28;20055;-55
2023/06/25 10:41:04;;;;;;;148.93;16.70;;;24.20;70.40;;;;;;5042394;28;20067;-55
2023/06/25 10:43:29;;;;;;;92.82;12.57;;;24.20;70.20;;;;;;5053153;28;20045;-55
2023/06/25 10:45:56;;;;;;;118.40;14.68;;;24.30;69.80;;;;;;5045142;28;20066;-56
2023/06/25 10:48:22;;;;;;;79.45;12.60;;;24.40;69.70;;;;;;5041556;28;20032;-55
2023/06/25 10:50:54;;;;;;;104.63;15.07;;;24.40;69.30;;;;;;5044300;28;20049;-55
2023/06/25 10:53:20;;;;;;;117.30;15.50;;;24.50;69.50;;;;;;5042814;28;20055;-56
2023/06/25 10:55:50;;;;;;;147.27;17.70;;;24.60;69.20;;;;;;5045804;28;20026;-55
2023/06/25 10:58:20;;;;;;;140.93;18.38;;;24.60;68.90;;;;;;5045817;28;20447;-55
2023/06/25 11:00:51;;;;;;;158.18;18.38;;;24.70;68.70;;;;;;5025962;28;20034;-55
2023/06/25 11:03:16;;;;;;;90.78;15.50;;;24.80;68.70;;;;;;5041400;28;20049;-55
2023/06/25 11:05:43;;;;;;;134.35;17.45;;;24.90;68.20;;;;;;5043508;28;20498;-55
2023/06/25 11:08:08;;;;;;;133.65;18.15;;;25.00;67.80;;;;;;5046130;28;20025;-55
2023/06/25 11:10:35;;;;;;;91.13;14.60;;;25.10;67.50;;;;;;5045540;28;20513;-55
2023/06/25 11:13:01;;;;;;;82.18;14.38;;;25.20;67.40;;;;;;5039995;28;20025;-55
2023/06/25 11:15:33;;;;;;;110.70;14.82;;;25.30;67.10;;;;;;5063534;28;20048;-55
2023/06/25 11:17:59;;;;;;;54.90;11.13;;;25.30;66.70;;;;;;5032059;28;20041;-55
2023/06/25 11:20:25;;;;;;;71.70;10.70;;;25.40;66.30;;;;;;5054487;28;20025;-55
2023/06/25 11:22:51;;;;;;;49.08;8.30;;;25.40;65.80;;;;;;5057833;28;20025;-55
2023/06/25 11:25:18;;;;;;;74.18;12.48;;;25.50;65.60;;;;;;5065630;28;20026;-55
2023/06/25 11:27:44;;;;;;;95.82;12.98;;;25.60;65.70;;;;;;5060693;28;20035;-55
2023/06/25 11:30:09;;;;;;;76.93;13.77;;;25.70;65.40;;;;;;5049062;28;20025;-55
2023/06/25 11:32:38;;;;;;;109.47;15.48;;;25.80;65.30;;;;;;5055032;28;20122;-55
2023/06/25 11:35:15;;;;;;;106.82;14.55;;;25.90;65.20;;;;;;5054800;28;20094;-55
2023/06/25 11:37:45;;;;;;;71.75;12.45;;;26.00;65.00;;;;;;5065791;28;20059;-55
2023/06/25 11:40:30;;;;;;;55.72;11.75;;;26.10;64.80;;;;;;5051127;28;20028;-55
2023/06/25 11:42:56;;;;;;;79.53;11.33;;;26.10;64.50;;;;;;5031348;28;20088;-55
2023/06/25 11:45:21;;;;;;;72.32;10.68;;;26.20;64.40;;;;;;5055892;28;20321;-55
2023/06/25 11:47:53;;;;;;;49.92;9.23;;;26.30;63.90;;;;;;5048854;28;20454;-55
2023/06/25 11:50:22;;;;;;;129.73;18.80;;;26.40;63.60;;;;;;5038973;28;20028;-55
2023/06/25 11:52:47;;;;;;;85.25;13.35;;;26.50;63.30;;;;;;5045295;28;20052;-56
2023/06/25 11:55:13;;;;;;;44.53;10.13;;;26.50;63.20;;;;;;5045868;28;20426;-55
2023/06/25 11:57:39;;;;;;;47.15;9.82;;;26.60;63.10;;;;;;5048670;28;20028;-55
2023/06/25 12:00:05;;;;;;;49.30;9.80;;;26.70;63.00;;;;;;5053649;28;20040;-56
2023/06/25 12:02:31;;;;;;;66.80;10.80;;;26.70;62.70;;;;;;5045861;28;20025;-55
2023/06/25 12:04:56;;;;;;;55.40;10.52;;;26.80;62.50;;;;;;5048413;28;20026;-55
2023/06/25 12:07:22;;;;;;;63.13;9.65;;;26.80;62.50;;;;;;5037045;28;20397;-55
2023/06/25 12:09:47;;;;;;;45.40;8.45;;;26.90;62.10;;;;;;5053098;28;20033;-55
2023/06/25 12:12:13;;;;;;;56.45;8.52;;;27.00;61.90;;;;;;5052854;28;20174;-55
2023/06/25 12:14:38;;;;;;;58.38;9.55;;;27.10;61.70;;;;;;5028190;28;20099;-55
2023/06/25 12:17:04;;;;;;;64.35;9.95;;;27.20;61.60;;;;;;5045246;28;20056;-55
2023/06/25 12:19:30;;;;;;;71.85;10.60;;;27.20;61.70;;;;;;5044343;28;20029;-56
2023/06/25 12:21:56;;;;;;;52.40;9.30;;;27.20;61.50;;;;;;5045431;28;20044;-55
2023/06/25 12:24:23;;;;;;;25.98;6.53;;;27.30;61.20;;;;;;5055855;28;20110;-55
2023/06/25 12:26:48;;;;;;;26.70;6.88;;;27.30;60.50;;;;;;5047602;28;20126;-55
2023/06/25 12:29:14;;;;;;;45.03;8.13;;;27.40;60.40;;;;;;5043751;28;20033;-55
2023/06/25 12:31:40;;;;;;;48.00;8.85;;;27.50;60.40;;;;;;5045337;28;20109;-55
2023/06/25 12:34:05;;;;;;;43.85;8.30;;;27.50;60.40;;;;;;5063998;28;20105;-55